Time;durP1;ratioP1;P1;durP2;ratioP2;P2;SDS_P1;SDS_P2;PMS_P1;PMS_P2;Temp;Humidity;BMP_temperature;BMP_pressure;BME280_temperature;BME280_humidity;BME280_pressure;Samples;Min_cycle;Max_cycle;Signal;HPM_P1;HPM_P2
2023/07/02 00:02:42;;;;;;;20.20;8.00;;;;;;;18.70;95.63;100566.63;5060468;28;20056;-64
2023/07/02 00:05:30;;;;;;;21.15;7.90;;;;;;;18.68;95.55;100563.38;5060343;28;20051;-65
2023/07/02 00:08:18;;;;;;;18.55;8.30;;;;;;;18.64;95.61;100556.06;5045695;28;20076;-65
2023/07/02 00:10:47;;;;;;;18.67;8.52;;;;;;;18.61;95.93;100553.97;5050642;28;20044;-65
2023/07/02 00:13:35;;;;;;;17.10;7.93;;;;;;;18.56;95.88;100559.69;5066822;28;20048;-66
2023/07/02 00:16:23;;;;;;;18.23;7.15;;;;;;;18.58;96.39;100549.94;5067033;28;20121;-66
2023/07/02 00:19:14;;;;;;;18.27;8.40;;;;;;;18.61;96.29;100534.66;5050981;28;20054;-65
2023/07/02 00:22:02;;;;;;;17.95;8.43;;;;;;;18.65;95.45;100530.91;5045986;28;20117;-64
2023/07/02 00:24:30;;;;;;;19.45;8.63;;;;;;;18.63;95.53;100522.16;5054711;28;20135;-65
2023/07/02 00:27:18;;;;;;;14.82;7.18;;;;;;;18.61;95.91;100535.47;5056070;28;20504;-65
2023/07/02 00:30:07;;;;;;;13.63;7.18;;;;;;;18.60;96.00;100539.38;5059591;28;20456;-64
2023/07/02 00:32:45;;;;;;;19.23;8.75;;;;;;;18.60;95.38;100544.91;5060046;28;20122;-64
2023/07/02 00:35:33;;;;;;;20.55;8.48;;;;;;;18.53;95.26;100550.09;5044936;28;20140;-65
2023/07/02 00:38:23;;;;;;;20.65;9.27;;;;;;;18.49;95.22;100565.69;5042783;28;20128;-66
2023/07/02 00:40:50;;;;;;;19.45;10.00;;;;;;;18.48;94.91;100559.38;5050079;28;20055;-66
2023/07/02 00:43:44;;;;;;;18.08;8.60;;;;;;;18.43;95.31;100561.50;5060571;28;20167;-64
2023/07/02 00:46:32;;;;;;;23.05;10.20;;;;;;;18.43;95.45;100572.53;5058306;28;20046;-66
2023/07/02 00:49:20;;;;;;;23.42;9.82;;;;;;;18.39;95.45;100566.84;5044821;28;20485;-65
2023/07/02 00:52:08;;;;;;;20.83;10.02;;;;;;;18.38;95.80;100570.75;5051387;28;20080;-65
2023/07/02 00:54:55;;;;;;;19.33;9.73;;;;;;;18.38;95.67;100569.94;5043362;28;20099;-65
2023/07/02 00:57:46;;;;;;;20.42;8.85;;;;;;;18.38;95.77;100572.69;5042098;28;20053;-66
2023/07/02 01:00:30;;;;;;;22.02;9.82;;;;;;;18.41;95.68;100574.81;5026561;28;20060;-65
2023/07/02 01:03:18;;;;;;;19.55;9.35;;;;;;;18.35;95.90;100579.69;5045893;28;20083;-66
2023/07/02 01:06:05;;;;;;;25.15;10.50;;;;;;;18.34;95.50;100580.00;5041912;28;20155;-66
2023/07/02 01:09:01;;;;;;;15.85;8.27;;;;;;;18.35;95.98;100576.09;5040615;28;20075;-65
2023/07/02 01:11:54;;;;;;;25.25;10.38;;;;;;;18.33;95.66;100586.63;5036221;28;20049;-64
2023/07/02 01:14:46;;;;;;;22.52;10.85;;;;;;;18.26;96.17;100579.69;5033474;28;20483;-64
2023/07/02 01:17:18;;;;;;;25.65;10.90;;;;;;;18.23;96.16;100587.78;5035322;28;20054;-65
2023/07/02 01:20:08;;;;;;;24.08;10.35;;;;;;;18.20;96.38;100586.50;5038430;28;20056;-66
2023/07/02 01:22:57;;;;;;;29.27;12.45;;;;;;;18.20;96.49;100591.19;5050881;28;20045;-65
2023/07/02 01:25:26;;;;;;;24.05;11.15;;;;;;;18.20;96.28;100583.72;5039514;28;20041;-65
2023/07/02 01:28:14;;;;;;;24.00;11.80;;;;;;;18.21;96.61;100587.31;5057507;28;20060;-65
2023/07/02 01:31:02;;;;;;;25.73;12.38;;;;;;;18.14;96.88;100587.81;5036752;28;20057;-64
2023/07/02 01:33:51;;;;;;;26.20;12.57;;;;;;;18.16;97.19;100598.50;5022667;28;20143;-64
2023/07/02 01:36:39;;;;;;;22.90;11.20;;;;;;;18.09;97.35;100607.28;5037074;28;20049;-64
2023/07/02 01:39:27;;;;;;;24.80;11.73;;;;;;;18.08;97.78;100605.63;5038507;28;20049;-64
2023/07/02 01:42:16;;;;;;;28.48;12.60;;;;;;;18.05;98.12;100609.84;5053704;28;20045;-65
2023/07/02 01:45:05;;;;;;;27.75;12.57;;;;;;;18.03;98.21;100614.06;5041234;28;20049;-64
2023/07/02 01:47:53;;;;;;;29.83;13.93;;;;;;;18.00;98.54;100611.97;5051874;28;20161;-65
2023/07/02 01:50:40;;;;;;;32.50;13.60;;;;;;;18.00;98.75;100611.97;5055824;28;20444;-65
2023/07/02 01:53:09;;;;;;;21.00;11.35;;;;;;;17.98;98.63;100605.97;5053178;28;20060;-65
2023/07/02 01:55:57;;;;;;;23.85;12.05;;;;;;;17.99;98.86;100613.91;5055718;28;20087;-65
2023/07/02 01:58:45;;;;;;;28.52;13.75;;;;;;;17.98;98.81;100605.97;5051718;28;20537;-65
2023/07/02 02:01:33;;;;;;;28.05;13.88;;;;;;;17.92;99.20;100602.56;5052373;28;20119;-66
2023/07/02 02:04:21;;;;;;;27.23;12.98;;;;;;;17.93;99.26;100608.88;5035181;28;20144;-65
2023/07/02 02:07:08;;;;;;;28.23;13.50;;;;;;;17.98;99.14;100617.00;5036223;28;20045;-65
2023/07/02 02:09:56;;;;;;;25.92;13.10;;;;;;;17.98;99.06;100611.47;5035335;28;20049;-65
2023/07/02 02:12:44;;;;;;;22.75;11.77;;;;;;;17.98;99.07;100614.22;5027259;28;20053;-65
2023/07/02 02:15:31;;;;;;;25.30;13.07;;;;;;;17.99;98.94;100607.56;5051627;28;20087;-66
2023/07/02 02:18:19;;;;;;;31.48;13.88;;;;;;;17.96;99.18;100616.50;5035394;28;20045;-65
2023/07/02 02:21:07;;;;;;;24.30;11.52;;;;;;;17.96;99.26;100605.47;5035399;28;20132;-65
2023/07/02 02:23:55;;;;;;;23.45;12.15;;;;;;;17.96;99.55;100613.75;5035465;28;20045;-64
2023/07/02 02:26:43;;;;;;;25.52;13.23;;;;;;;17.95;99.35;100612.13;5036572;28;20091;-64
2023/07/02 02:29:30;;;;;;;24.10;12.38;;;;;;;17.96;99.35;100613.75;5034423;28;20053;-64
2023/07/02 02:32:21;;;;;;;28.35;13.27;;;;;;;17.96;99.15;100610.97;5023161;28;20091;-65
2023/07/02 02:35:09;;;;;;;27.58;13.15;;;;;;;17.93;99.10;100612.44;5053810;28;20048;-63
2023/07/02 02:38:01;;;;;;;24.30;12.55;;;;;;;17.92;98.97;100623.78;5045962;28;20050;-65
2023/07/02 02:40:49;;;;;;;21.63;12.00;;;;;;;17.88;99.11;100624.44;5050863;28;20073;-57
2023/07/02 02:43:43;;;;;;;28.85;13.25;;;;;;;17.89;99.04;100625.22;5047400;28;20048;-64
2023/07/02 02:46:33;;;;;;;25.38;13.20;;;;;;;17.86;98.78;100632.22;5032706;28;20449;-64
2023/07/02 02:49:21;;;;;;;31.00;13.65;;;;;;;17.84;98.60;100628.97;5046009;28;20120;-58
2023/07/02 02:52:10;;;;;;;26.33;12.98;;;;;;;17.82;98.38;100636.75;5063057;28;20045;-58
2023/07/02 02:54:57;;;;;;;27.17;13.27;;;;;;;17.78;98.18;100641.25;5062346;28;20064;-65
2023/07/02 02:57:45;;;;;;;30.63;13.90;;;;;;;17.76;97.93;100635.25;5036212;28;20501;-64
2023/07/02 03:00:33;;;;;;;28.67;12.57;;;;;;;17.78;97.58;100635.75;5037975;28;20452;-64
2023/07/02 03:03:21;;;;;;;25.80;12.50;;;;;;;17.74;96.71;100634.75;5039563;28;20156;-66
2023/07/02 03:06:09;;;;;;;26.83;13.35;;;;;;;17.71;95.96;100634.59;5052990;28;20404;-65
2023/07/02 03:08:56;;;;;;;22.83;12.55;;;;;;;17.69;94.90;100643.16;5050927;28;20568;-66
2023/07/02 03:11:44;;;;;;;22.52;10.27;;;;;;;17.70;94.43;100650.28;5051769;28;20053;-65
2023/07/02 03:14:32;;;;;;;22.63;12.43;;;;;;;17.74;93.91;100656.78;5053020;28;20119;-65
2023/07/02 03:17:20;;;;;;;25.77;12.38;;;;;;;17.73;92.86;100666.22;5043713;28;20454;-65
2023/07/02 03:20:08;;;;;;;27.05;12.05;;;;;;;17.71;92.00;100654.69;5026478;28;20121;-64
2023/07/02 03:22:56;;;;;;;21.67;11.45;;;;;;;17.70;91.17;100664.06;5039637;28;20057;-66
2023/07/02 03:25:44;;;;;;;24.83;11.82;;;;;;;17.71;91.08;100657.44;5038799;28;20088;-66
2023/07/02 03:28:33;;;;;;;24.60;11.13;;;;;;;17.69;90.21;100665.22;5037425;28;20053;-65
2023/07/02 03:31:21;;;;;;;21.30;11.32;;;;;;;17.67;89.75;100667.47;5065863;28;20487;-68
2023/07/02 03:34:09;;;;;;;23.10;11.30;;;;;;;17.66;88.88;100665.84;5054759;28;20504;-64
2023/07/02 03:36:57;;;;;;;21.92;10.40;;;;;;;17.64;88.76;100674.44;5052142;28;20071;-64
2023/07/02 03:39:45;;;;;;;18.73;10.07;;;;;;;17.63;88.73;100672.81;5039131;28;20049;-64
2023/07/02 03:42:34;;;;;;;21.02;10.25;;;;;;;17.64;88.54;100682.69;5032995;28;20084;-65
2023/07/02 03:45:21;;;;;;;21.83;10.68;;;;;;;17.65;87.78;100683.50;5033449;28;20055;-66
2023/07/02 03:48:09;;;;;;;19.92;9.20;;;;;;;17.65;87.87;100687.09;5033935;28;20053;-65
2023/07/02 03:50:57;;;;;;;21.30;10.23;;;;;;;17.66;87.28;100685.94;5052705;28;20456;-65
2023/07/02 03:53:44;;;;;;;20.73;10.18;;;;;;;17.64;86.36;100687.41;5053624;28;20059;-65
2023/07/02 03:56:32;;;;;;;22.42;9.15;;;;;;;17.64;86.13;100692.91;5052407;28;20053;-65
2023/07/02 03:59:19;;;;;;;23.33;10.80;;;;;;;17.59;85.80;100693.88;5033776;28;20561;-64
2023/07/02 04:02:07;;;;;;;21.17;9.95;;;;;;;17.54;85.42;100696.78;5052078;28;20122;-65
2023/07/02 04:04:55;;;;;;;23.67;9.98;;;;;;;17.51;84.96;100697.41;5041484;28;20056;-64
2023/07/02 04:07:43;;;;;;;22.13;9.77;;;;;;;17.49;84.46;100696.13;5053215;28;20091;-65
2023/07/02 04:10:30;;;;;;;18.27;9.63;;;;;;;17.50;84.00;100701.28;5052022;28;20059;-65
2023/07/02 04:13:18;;;;;;;22.05;9.93;;;;;;;17.53;83.95;100699.84;5052607;28;20049;-65
2023/07/02 04:16:06;;;;;;;21.27;9.80;;;;;;;17.53;83.54;100699.84;5052267;28;20128;-66
2023/07/02 04:18:53;;;;;;;21.85;9.20;;;;;;;17.54;82.83;100701.47;5048479;28;20459;-66
2023/07/02 04:21:41;;;;;;;21.25;9.75;;;;;;;17.51;82.55;100705.69;5038940;28;20045;-64
2023/07/02 04:24:29;;;;;;;20.13;9.32;;;;;;;17.52;82.52;100700.97;5037340;28;20077;-64
2023/07/02 04:27:17;;;;;;;21.70;10.90;;;;;;;17.50;81.69;100703.22;5033950;28;20145;-64
2023/07/02 04:30:25;;;;;;;17.02;9.13;;;;;;;17.53;81.28;100710.84;5049496;28;20048;-65
2023/07/02 04:33:13;;;;;;;25.17;10.05;;;;;;;17.50;81.16;100709.53;5052394;28;20103;-65
2023/07/02 04:36:04;;;;;;;20.90;8.90;;;;;;;17.54;81.30;100720.75;5040127;28;20451;-64
2023/07/02 04:38:52;;;;;;;20.33;9.15;;;;;;;17.54;81.24;100710.53;5050445;28;20045;-65
2023/07/02 04:41:40;;;;;;;24.85;9.98;;;;;;;17.55;79.92;100719.63;5046947;28;20045;-65
2023/07/02 04:44:30;;;;;;;21.45;9.48;;;;;;;17.55;79.21;100722.38;5056703;28;20055;-65
2023/07/02 04:47:18;;;;;;;19.00;8.95;;;;;;;17.57;80.01;100722.88;5042493;28;20052;-65
2023/07/02 04:50:06;;;;;;;22.52;9.13;;;;;;;17.57;79.44;100722.88;5047686;28;20059;-65
2023/07/02 04:52:55;;;;;;;23.98;9.88;;;;;;;17.59;79.01;100726.13;5036728;28;20489;-66
2023/07/02 04:55:44;;;;;;;21.08;8.75;;;;;;;17.64;79.95;100723.22;5035656;28;20386;-63
2023/07/02 04:58:31;;;;;;;23.75;9.73;;;;;;;17.64;79.60;100723.22;5049215;28;20161;-65
2023/07/02 05:01:19;;;;;;;20.20;10.27;;;;;;;17.64;80.21;100734.25;5056834;28;20131;-66
2023/07/02 05:04:09;;;;;;;24.48;11.05;;;;;;;17.62;80.57;100736.50;5055026;28;20053;-67
2023/07/02 05:06:57;;;;;;;23.58;10.93;;;;;;;17.59;81.20;100737.16;5041527;28;20400;-66
2023/07/02 05:09:45;;;;;;;24.25;11.77;;;;;;;17.58;81.41;100733.59;5045858;28;20095;-65
2023/07/02 05:12:33;;;;;;;27.15;11.80;;;;;;;17.55;81.90;100736.16;5036998;28;20089;-65
2023/07/02 05:15:20;;;;;;;26.23;12.38;;;;;;;17.56;80.96;100737.78;5029214;28;20048;-65
2023/07/02 05:18:08;;;;;;;26.23;11.90;;;;;;;17.47;81.38;100746.00;5055352;28;20056;-65
2023/07/02 05:20:56;;;;;;;24.90;11.55;;;;;;;17.46;81.62;100745.19;5055580;28;20079;-64
2023/07/02 05:23:43;;;;;;;19.05;9.40;;;;;;;17.53;81.65;100749.41;5056187;28;20041;-65
2023/07/02 05:26:31;;;;;;;23.65;11.48;;;;;;;17.54;80.74;100751.06;5055286;28;20059;-65
2023/07/02 05:29:19;;;;;;;23.27;11.38;;;;;;;17.49;79.35;100759.47;5054057;28;20084;-64
2023/07/02 05:32:07;;;;;;;22.25;11.18;;;;;;;17.49;78.81;100751.19;5036265;28;20037;-65
2023/07/02 05:34:55;;;;;;;23.30;9.88;;;;;;;17.50;78.21;100756.38;5035949;28;20128;-63
2023/07/02 05:37:43;;;;;;;25.25;10.32;;;;;;;17.51;77.03;100769.03;5045747;28;20494;-64
2023/07/02 05:40:30;;;;;;;23.50;10.25;;;;;;;17.54;77.13;100767.59;5052689;28;20048;-64
2023/07/02 05:43:18;;;;;;;25.25;10.43;;;;;;;17.51;75.57;100773.72;5034360;28;20073;-64
2023/07/02 05:46:06;;;;;;;22.13;9.60;;;;;;;17.46;75.78;100778.25;5052349;28;20136;-64
2023/07/02 05:48:57;;;;;;;27.33;10.10;;;;;;;17.50;75.05;100783.13;5037596;28;20132;-65
2023/07/02 05:51:44;;;;;;;22.60;9.30;;;;;;;17.49;75.61;100776.00;5043178;28;20048;-65
2023/07/02 05:54:32;;;;;;;25.35;10.57;;;;;;;17.48;74.92;100775.16;5046931;28;20053;-65
2023/07/02 05:57:20;;;;;;;21.92;9.00;;;;;;;17.56;75.12;100784.63;5046059;28;20050;-63
2023/07/02 06:00:08;;;;;;;20.95;8.73;;;;;;;17.53;74.76;100785.22;5037663;28;20049;-64
2023/07/02 06:02:58;;;;;;;24.70;9.77;;;;;;;17.56;74.99;100785.44;5048860;28;20037;-63
2023/07/02 06:05:49;;;;;;;22.42;9.05;;;;;;;17.64;75.18;100787.41;5034215;28;20049;-63
2023/07/02 06:08:18;;;;;;;21.98;9.50;;;;;;;17.59;73.94;100793.06;5035889;28;20132;-63
2023/07/02 06:10:47;;;;;;;24.60;10.32;;;;;;;17.54;73.97;100797.91;5036064;28;20049;-63
2023/07/02 06:13:16;;;;;;;26.25;9.88;;;;;;;17.53;74.45;100788.78;5036842;28;20075;-64
2023/07/02 06:15:46;;;;;;;20.58;9.25;;;;;;;17.60;74.84;100804.88;5034241;28;20076;-63
2023/07/02 06:18:14;;;;;;;24.67;9.90;;;;;;;17.64;74.28;100801.19;5053545;28;20045;-64
2023/07/02 06:20:43;;;;;;;24.95;10.25;;;;;;;17.56;73.08;100803.91;5054388;28;20040;-63
2023/07/02 06:23:10;;;;;;;21.85;9.23;;;;;;;17.54;74.48;100811.66;5051371;28;20040;-63
2023/07/02 06:25:38;;;;;;;24.88;9.75;;;;;;;17.63;74.45;100809.75;5054069;28;20145;-65
2023/07/02 06:28:06;;;;;;;21.25;9.55;;;;;;;17.57;74.32;100800.81;5054511;28;20493;-64
2023/07/02 06:30:34;;;;;;;22.60;9.60;;;;;;;17.54;74.23;100808.91;5059420;28;20123;-65
2023/07/02 06:33:02;;;;;;;24.58;9.43;;;;;;;17.51;74.48;100813.13;5059158;28;20178;-64
2023/07/02 06:35:30;;;;;;;31.02;10.27;;;;;;;17.47;74.23;100817.63;5037773;28;20112;-63
2023/07/02 06:37:57;;;;;;;22.42;9.25;;;;;;;17.53;74.52;100807.28;5062801;28;20123;-64
2023/07/02 06:40:25;;;;;;;22.75;9.30;;;;;;;17.55;73.27;100818.78;5043109;28;20159;-64
2023/07/02 06:42:53;;;;;;;22.88;9.07;;;;;;;17.55;71.68;100816.03;5053865;28;20481;-65
2023/07/02 06:45:21;;;;;;;26.75;10.07;;;;;;;17.51;70.51;100828.81;5038485;28;20051;-65
2023/07/02 06:47:50;;;;;;;14.88;7.22;;;;;;;17.49;69.66;100814.56;5035220;28;20049;-65
2023/07/02 06:50:18;;;;;;;23.27;8.68;;;;;;;17.54;69.52;100822.69;5034954;28;20065;-64
2023/07/02 06:52:46;;;;;;;19.15;8.32;;;;;;;17.53;68.26;100832.06;5033398;28;20052;-64
2023/07/02 06:55:14;;;;;;;22.60;7.53;;;;;;;17.53;66.83;100835.63;5034998;28;20052;-63
2023/07/02 06:57:47;;;;;;;15.85;6.85;;;;;;;17.61;69.42;100834.09;5047946;28;20045;-65
2023/07/02 07:00:15;;;;;;;15.35;6.57;;;;;;;17.65;68.58;100835.06;5053684;28;20053;-65
2023/07/02 07:02:43;;;;;;;24.10;8.15;;;;;;;17.61;68.11;100845.91;5056097;28;20056;-65
2023/07/02 07:05:11;;;;;;;19.40;8.25;;;;;;;17.60;68.72;100846.22;5058824;28;20124;-62
2023/07/02 07:07:38;;;;;;;21.17;8.27;;;;;;;17.58;69.61;100851.22;5049891;28;20132;-66
2023/07/02 07:10:07;;;;;;;23.60;9.60;;;;;;;17.61;69.99;100856.13;5054085;28;20096;-66
2023/07/02 07:12:35;;;;;;;23.13;8.70;;;;;;;17.54;70.11;100869.53;5058119;28;20124;-63
2023/07/02 07:15:03;;;;;;;20.42;7.80;;;;;;;17.53;70.44;100859.63;5057552;28;20051;-62
2023/07/02 07:17:30;;;;;;;22.38;8.63;;;;;;;17.52;71.08;100864.31;5051747;28;20087;-63
2023/07/02 07:19:59;;;;;;;22.02;8.98;;;;;;;17.58;71.75;100862.25;5048311;28;20504;-60
2023/07/02 07:22:26;;;;;;;21.10;7.63;;;;;;;17.67;72.05;100854.84;5050046;28;20172;-65
2023/07/02 07:24:54;;;;;;;21.40;8.43;;;;;;;17.71;72.02;100866.88;5055035;28;20412;-66
2023/07/02 07:27:22;;;;;;;18.35;8.02;;;;;;;17.72;71.80;100862.97;5053191;28;20057;-65
2023/07/02 07:29:50;;;;;;;17.35;8.07;;;;;;;17.73;71.47;100863.81;5054211;28;20045;-63
2023/07/02 07:32:21;;;;;;;20.25;8.75;;;;;;;17.77;71.85;100864.78;5037201;28;20465;-66
2023/07/02 07:34:49;;;;;;;24.73;9.40;;;;;;;17.76;71.53;100875.00;5055812;28;20067;-65
2023/07/02 07:37:17;;;;;;;22.45;8.05;;;;;;;17.80;71.01;100870.53;5035693;28;20041;-65
2023/07/02 07:39:45;;;;;;;22.67;9.23;;;;;;;17.78;71.05;100875.50;5034308;28;20049;-66
2023/07/02 07:42:16;;;;;;;20.38;8.27;;;;;;;17.80;71.75;100880.72;5032198;28;20053;-65
2023/07/02 07:44:47;;;;;;;23.15;9.18;;;;;;;17.82;71.96;100878.47;5033851;28;20042;-65
2023/07/02 07:47:15;;;;;;;20.33;7.90;;;;;;;17.90;70.67;100882.44;5033382;28;20049;-69
2023/07/02 07:49:43;;;;;;;21.60;7.80;;;;;;;17.94;70.89;100880.66;5054118;28;20053;-66
2023/07/02 07:52:11;;;;;;;19.85;8.82;;;;;;;17.97;71.62;100891.06;5052490;28;20056;-64
2023/07/02 07:54:39;;;;;;;18.65;8.10;;;;;;;17.96;70.16;100883.91;5053715;28;20045;-66
2023/07/02 07:57:07;;;;;;;21.15;7.82;;;;;;;17.97;69.62;100893.81;5036042;28;20045;-65
2023/07/02 07:59:35;;;;;;;19.55;7.70;;;;;;;17.99;70.23;100895.13;5049627;28;20053;-65
2023/07/02 08:02:03;;;;;;;16.58;7.50;;;;;;;18.02;68.01;100888.16;5034719;28;20047;-65
2023/07/02 08:04:31;;;;;;;18.02;7.55;;;;;;;18.01;65.57;100895.59;5032588;28;20045;-65
2023/07/02 08:06:59;;;;;;;18.08;8.02;;;;;;;18.01;66.09;100892.03;5035441;28;20041;-65
2023/07/02 08:09:27;;;;;;;18.50;7.75;;;;;;;18.00;66.39;100893.97;5016234;28;20396;-65
2023/07/02 08:11:55;;;;;;;19.25;7.32;;;;;;;17.98;62.96;100899.00;5036622;28;20404;-64
2023/07/02 08:14:23;;;;;;;19.08;7.78;;;;;;;17.99;62.67;100899.81;5020551;28;20041;-66
2023/07/02 08:16:51;;;;;;;16.15;7.22;;;;;;;18.01;63.60;100903.88;5037948;28;20042;-63
2023/07/02 08:19:20;;;;;;;19.52;8.23;;;;;;;18.04;64.02;100908.78;5038581;28;20482;-64
2023/07/02 08:21:48;;;;;;;22.45;8.38;;;;;;;18.07;66.06;100907.31;5038374;28;20076;-63
2023/07/02 08:24:16;;;;;;;17.52;7.25;;;;;;;18.08;66.05;100908.94;5038425;28;20041;-64
2023/07/02 08:26:44;;;;;;;20.20;7.53;;;;;;;18.09;66.40;100910.59;5052659;28;20049;-63
2023/07/02 08:29:12;;;;;;;19.15;7.20;;;;;;;18.10;64.84;100907.50;5058071;28;20056;-63
2023/07/02 08:31:41;;;;;;;19.05;7.32;;;;;;;18.13;65.38;100910.75;5056902;28;20051;-65
2023/07/02 08:34:09;;;;;;;13.88;6.03;;;;;;;18.16;65.62;100912.88;5039798;28;20052;-64
2023/07/02 08:36:37;;;;;;;17.65;6.70;;;;;;;18.19;64.64;100924.09;5047067;28;20049;-66
2023/07/02 08:39:05;;;;;;;17.33;7.38;;;;;;;18.20;64.70;100917.44;5036288;28;20071;-66
2023/07/02 08:41:44;;;;;;;18.08;7.30;;;;;;;18.21;64.06;100913.56;5036272;28;20059;-65
2023/07/02 08:44:15;;;;;;;13.75;6.28;;;;;;;18.22;63.64;100914.38;5020203;28;20045;-64
2023/07/02 08:46:43;;;;;;;15.82;6.53;;;;;;;18.23;61.85;100925.09;5038117;28;20057;-66
2023/07/02 08:49:11;;;;;;;19.00;6.78;;;;;;;18.24;62.36;100928.66;5019284;28;20049;-64
2023/07/02 08:51:39;;;;;;;17.60;6.35;;;;;;;18.25;63.20;100933.84;5036739;28;20099;-67
2023/07/02 08:54:07;;;;;;;16.13;6.43;;;;;;;18.25;62.80;100942.13;5036539;28;20041;-64
2023/07/02 08:56:35;;;;;;;20.05;7.88;;;;;;;18.20;59.29;100933.16;5036483;28;20489;-63
2023/07/02 08:59:23;;;;;;;17.13;7.13;;;;;;;18.16;59.78;100937.69;5027611;28;20045;-64
2023/07/02 09:02:10;;;;;;;19.08;6.85;;;;;;;18.07;59.56;100938.47;5022643;28;20073;-65
2023/07/02 09:05:02;;;;;;;15.32;6.25;;;;;;;18.04;60.90;100935.53;5035423;28;20100;-65
2023/07/02 09:07:52;;;;;;;16.13;6.85;;;;;;;18.03;61.57;100942.16;5036144;28;20053;-66
2023/07/02 09:10:41;;;;;;;16.27;7.45;;;;;;;18.09;62.23;100936.22;5047754;28;20450;-63
2023/07/02 09:13:09;;;;;;;14.77;7.13;;;;;;;18.14;62.27;100938.03;5056664;28;20485;-65
2023/07/02 09:15:57;;;;;;;18.67;6.90;;;;;;;18.18;62.45;100936.22;5056116;28;20045;-64
2023/07/02 09:18:56;;;;;;;18.08;6.28;;;;;;;18.25;62.91;100944.88;5055994;28;20052;-64
2023/07/02 09:21:41;;;;;;;17.92;6.95;;;;;;;18.33;61.68;100939.72;5040775;28;20049;-65
2023/07/02 09:24:31;;;;;;;18.00;6.93;;;;;;;18.34;58.98;100946.88;5019228;28;20056;-64
2023/07/02 09:27:18;;;;;;;17.60;6.03;;;;;;;18.34;59.62;100938.59;5035753;28;20057;-67
2023/07/02 09:30:15;;;;;;;14.85;6.38;;;;;;;18.34;58.83;100938.59;5021991;28;20061;-64
2023/07/02 09:33:07;;;;;;;15.90;6.50;;;;;;;18.41;58.99;100933.44;5036065;28;20057;-64
2023/07/02 09:35:56;;;;;;;19.63;6.70;;;;;;;18.49;60.19;100925.19;5035909;28;20061;-64
2023/07/02 09:38:44;;;;;;;13.55;5.95;;;;;;;18.57;59.28;100931.88;5037635;28;20053;-66
2023/07/02 09:41:31;;;;;;;15.73;6.57;;;;;;;18.57;58.99;100923.59;5036068;28;20045;-64
2023/07/02 09:44:10;;;;;;;16.08;6.47;;;;;;;18.59;59.71;100932.38;5041263;28;20187;-64
2023/07/02 09:46:59;;;;;;;16.40;6.85;;;;;;;18.64;59.75;100931.41;5045306;28;20097;-65
2023/07/02 09:49:55;;;;;;;14.73;6.63;;;;;;;18.63;58.52;100930.59;5050730;28;20106;-64
2023/07/02 09:52:44;;;;;;;;;;;;;;;18.62;60.96;100928.97;5052982;28;20409;-64
2023/07/02 09:55:32;;;;;;;17.27;6.55;;;;;;;18.55;57.44;100922.31;5052555;28;19928;-63
2023/07/02 09:58:19;;;;;;;16.10;6.75;;;;;;;18.52;58.41;100918.22;5055622;28;20091;-64
2023/07/02 10:00:50;;;;;;;13.65;6.60;;;;;;;18.47;58.42;100937.66;5034751;28;20053;-65
2023/07/02 10:03:38;;;;;;;14.07;6.18;;;;;;;18.41;58.38;100945.28;5034320;28;20072;-64
2023/07/02 10:06:26;;;;;;;21.00;6.90;;;;;;;18.42;59.91;100940.56;5018267;28;20099;-65
2023/07/02 10:09:14;;;;;;;15.85;6.25;;;;;;;18.40;59.78;100946.44;5034817;28;20140;-65
2023/07/02 10:12:14;;;;;;;13.68;6.65;;;;;;;18.41;58.91;100955.50;5047548;28;20051;-64
2023/07/02 10:15:03;;;;;;;16.00;6.65;;;;;;;18.44;59.67;100958.44;5054927;28;20049;-63
2023/07/02 10:18:00;;;;;;;15.70;6.82;;;;;;;18.47;60.56;100954.22;5055372;28;20045;-65
2023/07/02 10:20:48;;;;;;;17.48;6.82;;;;;;;18.59;60.35;100957.22;5034048;28;20089;-64
2023/07/02 10:23:36;;;;;;;18.75;7.55;;;;;;;18.72;58.67;100972.84;5031995;28;20049;-64
2023/07/02 10:26:26;;;;;;;17.13;6.80;;;;;;;18.78;56.66;100959.72;5035047;28;20053;-64
2023/07/02 10:29:20;;;;;;;16.80;6.53;;;;;;;18.86;56.37;100960.91;5036024;28;20076;-63
2023/07/02 10:32:08;;;;;;;17.48;6.43;;;;;;;18.94;56.49;100957.34;5035505;28;20053;-64
2023/07/02 10:34:56;;;;;;;18.40;7.38;;;;;;;18.94;56.47;100960.91;5032655;28;20136;-65
2023/07/02 10:37:44;;;;;;;13.85;6.78;;;;;;;18.94;55.60;100954.59;5020462;28;20049;-65
2023/07/02 10:40:33;;;;;;;14.75;6.32;;;;;;;18.90;55.57;100959.91;5033657;28;20513;-64
2023/07/02 10:43:28;;;;;;;13.63;6.38;;;;;;;18.87;56.14;100968.03;5034412;28;20070;-65
2023/07/02 10:46:21;;;;;;;18.85;7.05;;;;;;;18.84;55.13;100971.44;5034676;28;20386;-65
2023/07/02 10:49:09;;;;;;;13.23;6.07;;;;;;;18.85;55.50;100965.59;5040763;28;20049;-65
2023/07/02 10:52:07;;;;;;;17.35;6.80;;;;;;;18.88;55.45;100961.38;5053611;28;20053;-64
2023/07/02 10:54:55;;;;;;;14.57;6.63;;;;;;;18.92;55.08;100970.66;5037688;28;20048;-65
2023/07/02 10:57:42;;;;;;;16.17;6.93;;;;;;;18.98;56.16;100966.63;5024647;28;20045;-65
2023/07/02 11:00:31;;;;;;;16.42;6.90;;;;;;;19.01;56.05;100965.97;5031414;28;20095;-65
2023/07/02 11:03:20;;;;;;;15.70;7.20;;;;;;;19.01;56.27;100957.69;5033470;28;20115;-65
2023/07/02 11:06:08;;;;;;;16.42;7.32;;;;;;;19.03;56.16;100972.00;5032938;28;20053;-65
2023/07/02 11:08:55;;;;;;;14.32;7.13;;;;;;;19.10;55.22;100960.47;5035219;28;20110;-64
2023/07/02 11:11:54;;;;;;;17.50;6.53;;;;;;;19.15;55.79;100966.66;5034283;28;20095;-64
2023/07/02 11:14:42;;;;;;;16.25;7.18;;;;;;;19.17;55.60;100969.09;5034039;28;20049;-64
2023/07/02 11:17:29;;;;;;;17.35;6.47;;;;;;;19.15;55.23;100972.16;5034405;28;20119;-64
2023/07/02 11:20:17;;;;;;;15.82;6.55;;;;;;;19.15;55.45;100969.41;5039575;28;20064;-63
2023/07/02 11:23:16;;;;;;;17.35;6.85;;;;;;;19.13;55.71;100974.44;4353550;28;10000776;-64
2023/07/02 11:26:04;;;;;;;16.83;6.50;;;;;;;19.12;55.16;100981.13;5030830;28;20068;-64
2023/07/02 11:28:51;;;;;;;17.38;7.22;;;;;;;19.18;55.81;100967.16;5047086;28;20056;-65
2023/07/02 11:31:39;;;;;;;16.23;6.72;;;;;;;19.25;56.31;100970.25;5041295;28;20080;-62
2023/07/02 11:34:33;;;;;;;16.45;7.25;;;;;;;19.33;56.60;100974.94;5070956;28;20095;-62
2023/07/02 11:37:25;;;;;;;16.48;6.88;;;;;;;19.39;57.04;100972.88;5055670;28;20049;-65
2023/07/02 11:39:53;;;;;;;16.17;7.20;;;;;;;19.43;57.16;100969.09;5032737;28;20396;-66
2023/07/02 11:42:41;;;;;;;16.85;7.35;;;;;;;19.51;56.30;100978.56;5042221;28;20065;-62
2023/07/02 11:45:28;;;;;;;17.92;6.88;;;;;;;19.51;54.08;100968.31;5047628;28;20143;-61
2023/07/02 11:48:16;;;;;;;14.60;6.40;;;;;;;19.56;54.11;100973.66;5055089;28;20072;-64
2023/07/02 11:51:04;;;;;;;14.25;6.85;;;;;;;19.59;54.30;100970.25;5043750;28;20513;-65
2023/07/02 11:53:51;;;;;;;15.55;6.47;;;;;;;19.64;53.71;100960.19;5031627;28;20059;-65
2023/07/02 11:56:42;;;;;;;18.90;7.60;;;;;;;19.63;54.68;100956.59;5031032;28;20045;-64
2023/07/02 11:59:30;;;;;;;13.30;6.60;;;;;;;19.61;54.24;100963.59;5015834;28;20081;-64
2023/07/02 12:02:18;;;;;;;15.52;6.75;;;;;;;19.55;54.59;100971.22;5030298;28;20387;-63
2023/07/02 12:05:06;;;;;;;14.45;6.63;;;;;;;19.48;55.02;100959.84;5026447;28;20057;-65
2023/07/02 12:07:58;;;;;;;17.27;7.10;;;;;;;19.47;55.79;100963.75;5032953;28;20400;-65
2023/07/02 12:10:26;;;;;;;14.52;6.60;;;;;;;19.50;56.01;100963.91;5049017;28;20405;-64
2023/07/02 12:13:14;;;;;;;15.40;6.80;;;;;;;19.56;55.57;100979.19;5048686;28;20115;-63
2023/07/02 12:16:02;;;;;;;14.55;6.25;;;;;;;19.67;53.01;100965.03;5050170;28;20057;-64
2023/07/02 12:18:50;;;;;;;15.82;6.57;;;;;;;19.74;52.36;100965.41;5031508;28;20054;-65
2023/07/02 12:21:37;;;;;;;15.80;7.30;;;;;;;19.79;52.33;100973.53;5029841;28;20602;-64
2023/07/02 12:24:09;;;;;;;13.30;6.07;;;;;;;19.82;51.38;100959.06;5029624;28;20386;-65
2023/07/02 12:26:57;;;;;;;13.02;5.68;;;;;;;19.82;50.36;100970.13;5028298;28;20053;-64